createdAt,value
2018-04-25T00:00:25.032Z,83.72
2018-04-25T00:01:25.015Z,83.25
2018-04-25T00:02:24.954Z,83.44
2018-04-25T00:03:24.981Z,83.72
2018-04-25T00:04:24.916Z,83.62
2018-04-25T00:05:24.854Z,83.06
2018-04-25T00:06:24.801Z,83.06
2018-04-25T00:07:24.773Z,83.06
2018-04-25T00:08:24.736Z,82.58
2018-04-25T00:09:24.709Z,82.58
2018-04-25T00:10:24.658Z,82.58
2018-04-25T00:11:24.611Z,82.58
2018-04-25T00:12:24.576Z,83.15
2018-04-25T00:13:24.519Z,83.06
2018-04-25T00:14:24.515Z,82.87
2018-04-25T00:15:24.452Z,83.06
2018-04-25T00:16:24.406Z,83.15
2018-04-25T00:17:24.382Z,82.96
2018-04-25T00:18:24.382Z,83.25
2018-04-25T00:19:24.341Z,83.53
2018-04-25T00:20:24.242Z,83.19
2018-04-25T00:21:24.233Z,83.82
2018-04-25T00:22:24.173Z,83.67
2018-04-25T00:23:24.176Z,83.86
2018-04-25T00:24:24.166Z,83.72
2018-04-25T00:25:24.061Z,83.58
2018-04-25T00:26:24.022Z,83.67
2018-04-25T00:27:23.991Z,83.67
2018-04-25T00:28:23.940Z,83.67
2018-04-25T00:29:23.915Z,83.91
2018-04-25T00:30:23.864Z,83.86
2018-04-25T00:31:23.828Z,83.67
2018-04-25T00:32:23.789Z,83.76
2018-04-25T00:33:23.739Z,83.62
2018-04-25T00:34:23.700Z,83.25
2018-04-25T00:35:23.671Z,83.58
2018-04-25T00:36:23.671Z,83.82
2018-04-25T00:37:23.600Z,83.82
2018-04-25T00:38:23.553Z,83.67
2018-04-25T00:39:23.508Z,83.62
2018-04-25T00:40:23.508Z,83.72
2018-04-25T00:41:23.451Z,83.62
2018-04-25T00:42:23.422Z,83.34
2018-04-25T00:43:23.363Z,83.53
2018-04-25T00:44:24.075Z,83.91
2018-04-25T00:45:23.280Z,83.34
2018-04-25T00:46:23.259Z,83.44
2018-04-25T00:47:23.213Z,83.82
2018-04-25T00:48:23.195Z,83.82
2018-04-25T00:49:23.118Z,84.20
2018-04-25T00:50:23.120Z,84.48
2018-04-25T00:51:23.121Z,84.48
2018-04-25T00:52:23.012Z,84.39
2018-04-25T00:53:22.983Z,84.01
2018-04-25T00:54:22.928Z,84.29
2018-04-25T00:55:22.900Z,83.39
2018-04-25T00:56:22.862Z,84.52
2018-04-25T00:57:22.842Z,84.72
2018-04-25T00:58:22.763Z,84.52
2018-04-25T00:59:22.735Z,84.10
2018-04-25T01:00:22.694Z,83.72
2018-04-25T01:01:22.651Z,83.72
2018-04-25T01:02:22.651Z,83.67
2018-04-25T01:03:22.570Z,84.10
2018-04-25T01:04:22.567Z,83.91
2018-04-25T01:05:22.518Z,83.82
2018-04-25T01:06:22.482Z,83.72
2018-04-25T01:07:22.419Z,83.82
2018-04-25T01:08:22.385Z,84.10
2018-04-25T01:09:22.373Z,84.58
2018-04-25T01:10:22.386Z,84.29
2018-04-25T01:11:22.269Z,84.10
2018-04-25T01:12:22.227Z,84.29
2018-04-25T01:13:22.216Z,84.10
2018-04-25T01:14:22.183Z,84.20
2018-04-25T01:15:22.105Z,84.58
2018-04-25T01:16:22.110Z,84.67
2018-04-25T01:17:22.070Z,84.48
2018-04-25T01:18:22.031Z,85.01
2018-04-25T01:19:22.486Z,84.77
2018-04-25T01:20:21.918Z,84.86
2018-04-25T01:21:21.913Z,84.95
2018-04-25T01:22:21.852Z,85.43
2018-04-25T01:23:21.810Z,85.43
2018-04-25T01:24:21.785Z,85.81
2018-04-25T01:25:21.734Z,85.62
2018-04-25T01:26:21.690Z,85.62
2018-04-25T01:27:21.655Z,85.53
2018-04-25T01:28:21.619Z,85.62
2018-04-25T01:29:21.593Z,85.53
2018-04-25T01:30:21.562Z,85.62
2018-04-25T01:31:21.513Z,85.53
2018-04-25T01:32:21.500Z,85.53
2018-04-25T01:33:21.418Z,85.72
2018-04-25T01:34:21.366Z,85.62
2018-04-25T01:35:21.327Z,86.10
2018-04-25T01:36:21.295Z,85.81
2018-04-25T01:37:21.266Z,86.00
2018-04-25T01:38:21.241Z,85.62
2018-04-25T01:39:21.186Z,86.10
2018-04-25T01:40:21.172Z,86.19
2018-04-25T01:41:21.094Z,86.00
2018-04-25T01:42:21.186Z,85.72
2018-04-25T01:43:21.034Z,85.72
2018-04-25T01:44:21.021Z,86.19
2018-04-25T01:45:20.954Z,85.62
2018-04-25T01:46:20.924Z,85.91
2018-04-25T01:47:20.893Z,85.62
2018-04-25T01:48:20.858Z,85.43
2018-04-25T01:49:20.819Z,86.19
2018-04-25T01:50:20.752Z,85.53
2018-04-25T01:51:20.712Z,85.81
2018-04-25T01:52:20.670Z,85.24
2018-04-25T01:53:20.638Z,85.62
2018-04-25T01:54:20.615Z,84.77
2018-04-25T01:55:20.564Z,84.77
2018-04-25T01:56:20.500Z,85.34
2018-04-25T01:57:20.477Z,85.15
2018-04-25T01:58:20.433Z,85.05
2018-04-25T01:59:20.405Z,84.48
2018-04-25T02:00:20.341Z,84.58
2018-04-25T02:01:20.315Z,84.58
2018-04-25T02:02:20.285Z,84.67
2018-04-25T02:03:20.248Z,84.77
2018-04-25T02:04:20.247Z,84.10
2018-04-25T02:05:20.189Z,83.91
2018-04-25T02:06:20.138Z,84.01
2018-04-25T02:07:20.083Z,84.39
2018-04-25T02:08:20.041Z,84.39
2018-04-25T02:09:20.015Z,84.10
2018-04-25T02:10:19.995Z,84.20
2018-04-25T02:11:19.922Z,84.48
2018-04-25T02:12:19.885Z,84.52
2018-04-25T02:13:19.877Z,84.10
2018-04-25T02:14:19.832Z,84.10
2018-04-25T02:15:19.771Z,84.20
2018-04-25T02:16:19.727Z,84.29
2018-04-25T02:17:19.711Z,84.01
2018-04-25T02:18:19.669Z,84.20
2018-04-25T02:19:19.630Z,84.39
2018-04-25T02:20:19.573Z,84.20
2018-04-25T02:21:19.559Z,84.20
2018-04-25T02:22:19.506Z,84.48
2018-04-25T02:23:19.440Z,84.48
2018-04-25T02:24:19.420Z,84.58
2018-04-25T02:25:19.413Z,84.48
2018-04-25T02:26:19.363Z,83.91
2018-04-25T02:27:19.307Z,84.20
2018-04-25T02:28:19.256Z,83.82
2018-04-25T02:29:19.225Z,83.72
2018-04-25T02:30:19.179Z,83.44
2018-04-25T02:31:19.153Z,83.62
2018-04-25T02:32:19.132Z,83.53
2018-04-25T02:33:19.048Z,83.62
2018-04-25T02:34:19.059Z,83.91
2018-04-25T02:35:18.987Z,83.72
2018-04-25T02:36:18.948Z,84.01
2018-04-25T02:37:18.919Z,83.72
2018-04-25T02:38:18.863Z,83.82
2018-04-25T02:39:18.862Z,84.01
2018-04-25T02:40:18.798Z,83.91
2018-04-25T02:41:18.741Z,83.44
2018-04-25T02:42:18.722Z,83.53
2018-04-25T02:43:18.664Z,83.34
2018-04-25T02:44:18.633Z,82.71
2018-04-25T02:45:18.611Z,83.00
2018-04-25T02:46:18.655Z,83.06
2018-04-25T02:47:18.532Z,82.96
2018-04-25T02:48:18.502Z,82.43
2018-04-25T02:49:18.457Z,81.86
2018-04-25T02:50:18.397Z,82.58
2018-04-25T02:51:18.349Z,82.34
2018-04-25T02:52:18.329Z,81.77
2018-04-25T02:53:18.304Z,82.43
2018-04-25T02:54:18.257Z,81.58
2018-04-25T02:55:18.257Z,80.95
2018-04-25T02:56:18.169Z,81.48
2018-04-25T02:57:18.150Z,81.48
2018-04-25T02:58:18.073Z,81.05
2018-04-25T02:59:18.048Z,81.81
2018-04-25T03:00:18.006Z,83.14
2018-04-25T03:01:17.976Z,85.75
2018-04-25T03:02:17.929Z,87.42
2018-04-25T03:03:17.881Z,97.74
2018-04-25T03:04:17.867Z,99.99
2018-04-25T03:05:17.829Z,99.99
2018-04-25T03:06:17.766Z,99.99
2018-04-25T03:07:17.727Z,99.99
2018-04-25T03:08:17.706Z,99.99
2018-04-25T03:09:17.651Z,99.99
2018-04-25T03:10:17.612Z,99.99
2018-04-25T03:11:17.567Z,99.99
2018-04-25T03:12:17.528Z,99.99
2018-04-25T03:13:17.500Z,99.99
2018-04-25T03:14:17.462Z,99.99
2018-04-25T03:15:17.438Z,99.99
2018-04-25T03:16:17.385Z,99.99
2018-04-25T03:17:17.397Z,99.99
2018-04-25T03:18:17.301Z,99.99
2018-04-25T03:19:17.281Z,99.99
2018-04-25T03:20:17.214Z,99.99
2018-04-25T03:21:17.184Z,99.99
2018-04-25T03:22:17.157Z,99.99
2018-04-25T03:23:17.126Z,99.99
2018-04-25T03:24:17.115Z,99.99
2018-04-25T03:25:17.031Z,99.99
2018-04-25T03:26:16.978Z,99.99
2018-04-25T03:27:16.949Z,99.99
2018-04-25T03:28:16.969Z,99.99
2018-04-25T03:29:16.900Z,99.99
2018-04-25T03:30:16.831Z,99.99
2018-04-25T03:31:16.793Z,99.99
2018-04-25T03:32:16.760Z,99.99
2018-04-25T03:33:16.756Z,99.99
2018-04-25T03:34:16.694Z,99.99
2018-04-25T03:35:16.650Z,98.60
2018-04-25T03:36:16.611Z,99.99
2018-04-25T03:37:16.688Z,99.99
2018-04-25T03:38:16.596Z,99.99
2018-04-25T03:39:16.495Z,99.99
2018-04-25T03:40:16.456Z,99.99
2018-04-25T03:41:16.416Z,99.99
2018-04-25T03:42:16.359Z,99.99
2018-04-25T03:43:16.353Z,99.99
2018-04-25T03:44:16.312Z,99.99
2018-04-25T03:45:16.251Z,99.99
2018-04-25T03:46:16.214Z,99.99
2018-04-25T03:47:16.177Z,99.99
2018-04-25T03:48:16.153Z,99.99
2018-04-25T03:49:16.100Z,99.99
2018-04-25T03:50:16.119Z,99.99
2018-04-25T03:51:16.030Z,99.99
2018-04-25T03:52:16.013Z,99.99
2018-04-25T03:53:15.955Z,93.84
2018-04-25T03:54:15.916Z,95.08
2018-04-25T03:55:15.865Z,99.99
2018-04-25T03:56:15.835Z,99.99
2018-04-25T03:57:15.846Z,99.99
2018-04-25T03:58:15.768Z,99.99
2018-04-25T03:59:15.725Z,97.65
2018-04-25T04:00:15.709Z,98.22
2018-04-25T04:01:15.641Z,99.99
2018-04-25T04:02:15.593Z,99.99
2018-04-25T04:03:15.598Z,99.99
2018-04-25T04:04:15.557Z,99.99
2018-04-25T04:05:15.538Z,99.99
2018-04-25T04:06:15.480Z,99.99
2018-04-25T04:07:16.031Z,99.99
2018-04-25T04:08:15.510Z,96.41
2018-04-25T04:09:15.394Z,95.56
2018-04-25T04:10:15.314Z,97.27
2018-04-25T04:11:15.267Z,98.55
2018-04-25T04:12:15.201Z,99.99
2018-04-25T04:13:15.192Z,97.22
2018-04-25T04:14:15.146Z,99.32
2018-04-25T04:15:15.113Z,96.08
2018-04-25T04:16:15.065Z,99.69
2018-04-25T04:17:15.022Z,99.99
2018-04-25T04:18:14.993Z,99.99
2018-04-25T04:19:14.957Z,95.51
2018-04-25T04:20:14.926Z,99.99
2018-04-25T04:21:14.912Z,99.99
2018-04-25T04:22:14.853Z,99.99
2018-04-25T04:23:14.792Z,99.99
2018-04-25T04:24:14.744Z,99.99
2018-04-25T04:25:14.735Z,99.99
2018-04-25T04:26:14.678Z,99.99
2018-04-25T04:27:14.642Z,99.99
2018-04-25T04:28:14.614Z,99.99
2018-04-25T04:29:14.574Z,99.99
2018-04-25T04:30:14.519Z,99.99
2018-04-25T04:31:14.501Z,98.22
2018-04-25T04:32:14.439Z,99.99
2018-04-25T04:33:14.456Z,99.99
2018-04-25T04:34:14.365Z,99.99
2018-04-25T04:35:14.331Z,99.99
2018-04-25T04:36:14.318Z,99.99
2018-04-25T04:37:14.257Z,98.74
2018-04-25T04:38:14.228Z,99.99
2018-04-25T04:39:14.196Z,99.60
2018-04-25T04:40:14.128Z,99.99
2018-04-25T04:41:14.145Z,99.99
2018-04-25T04:42:14.064Z,99.69
2018-04-25T04:43:14.052Z,99.99
2018-04-25T04:44:13.987Z,99.99
2018-04-25T04:45:13.968Z,99.99
2018-04-25T04:46:13.912Z,99.99
2018-04-25T04:47:13.904Z,99.99
2018-04-25T04:48:13.846Z,99.99
2018-04-25T04:49:13.799Z,99.99
2018-04-25T04:50:13.759Z,99.99
2018-04-25T04:51:13.719Z,99.99
2018-04-25T04:52:13.678Z,99.99
2018-04-25T04:53:13.670Z,99.99
2018-04-25T04:54:13.643Z,99.99
2018-04-25T04:55:13.563Z,99.99
2018-04-25T04:56:13.547Z,99.99
2018-04-25T04:57:13.525Z,99.99
2018-04-25T04:58:13.465Z,99.99
2018-04-25T04:59:13.421Z,99.99
2018-04-25T05:00:13.386Z,99.99
2018-04-25T05:01:13.418Z,99.99
2018-04-25T05:02:13.302Z,99.99
2018-04-25T05:03:13.261Z,99.99
2018-04-25T05:04:13.257Z,99.99
2018-04-25T05:05:13.212Z,99.99
2018-04-25T05:06:13.155Z,99.99
2018-04-25T05:07:13.128Z,99.99
2018-04-25T05:08:13.092Z,99.99
2018-04-25T05:09:13.063Z,99.99
2018-04-25T05:10:13.060Z,99.99
2018-04-25T05:11:12.987Z,99.99
2018-04-25T05:12:12.973Z,99.99
2018-04-25T05:13:12.935Z,99.99
2018-04-25T05:14:12.865Z,99.99
2018-04-25T05:15:12.869Z,99.99
2018-04-25T05:16:12.794Z,99.99
2018-04-25T05:17:12.769Z,99.99
2018-04-25T05:18:12.735Z,99.99
2018-04-25T05:19:12.691Z,99.99
2018-04-25T05:20:12.642Z,99.99
2018-04-25T05:21:12.633Z,99.99
2018-04-25T05:22:12.582Z,99.99
2018-04-25T05:23:12.534Z,99.99
2018-04-25T05:24:12.541Z,99.99
2018-04-25T05:25:12.470Z,99.99
2018-04-25T05:26:12.429Z,99.99
2018-04-25T05:27:12.411Z,99.99
2018-04-25T05:28:12.363Z,99.99
2018-04-25T05:29:13.076Z,99.99
2018-04-25T05:30:12.290Z,99.99
2018-04-25T05:31:12.321Z,99.99
2018-04-25T05:32:12.370Z,99.99
2018-04-25T05:33:12.186Z,99.99
2018-04-25T05:34:12.177Z,99.99
2018-04-25T05:35:13.057Z,99.99
2018-04-25T05:36:12.074Z,99.99
2018-04-25T05:37:12.045Z,99.99
2018-04-25T05:38:12.000Z,99.99
2018-04-25T05:39:12.551Z,99.99
2018-04-25T05:40:11.927Z,99.99
2018-04-25T05:41:11.929Z,99.99
2018-04-25T05:42:12.556Z,99.99
2018-04-25T05:43:11.855Z,99.99
2018-04-25T05:44:11.788Z,99.99
2018-04-25T05:45:11.775Z,99.99
2018-04-25T05:46:11.718Z,99.99
2018-04-25T05:47:11.711Z,99.99
2018-04-25T05:48:11.685Z,99.99
2018-04-25T05:49:11.614Z,99.99
2018-04-25T05:50:11.583Z,99.99
2018-04-25T05:51:11.537Z,99.99
2018-04-25T05:52:11.505Z,99.99
2018-04-25T05:53:11.489Z,99.99
2018-04-25T05:54:11.567Z,99.99
2018-04-25T05:55:11.500Z,99.99
2018-04-25T05:56:11.381Z,99.99
2018-04-25T05:57:11.391Z,99.99
2018-04-25T05:58:11.347Z,99.99
2018-04-25T05:59:11.268Z,99.99
2018-04-25T06:00:11.335Z,99.99
2018-04-25T06:01:11.223Z,99.99
2018-04-25T06:02:11.190Z,99.99
2018-04-25T06:03:11.148Z,99.99
2018-04-25T06:04:11.092Z,99.99
2018-04-25T06:05:11.065Z,99.99
2018-04-25T06:06:11.083Z,99.99
2018-04-25T06:07:11.110Z,99.99
2018-04-25T06:08:11.065Z,99.99
2018-04-25T06:09:10.930Z,99.99
2018-04-25T06:10:10.890Z,99.99
2018-04-25T06:11:10.864Z,99.99
2018-04-25T06:12:10.835Z,99.99
2018-04-25T06:13:10.802Z,99.99
2018-04-25T06:14:10.772Z,99.99
2018-04-25T06:15:10.736Z,99.99
2018-04-25T06:16:10.706Z,99.99
2018-04-25T06:17:10.719Z,99.99
2018-04-25T06:18:10.635Z,99.99
2018-04-25T06:19:10.605Z,99.99
2018-04-25T06:20:10.661Z,99.99
2018-04-25T06:21:10.568Z,99.99
2018-04-25T06:22:10.514Z,99.99
2018-04-25T06:23:10.483Z,99.99
2018-04-25T06:24:10.488Z,99.99
2018-04-25T06:25:10.417Z,99.99
2018-04-25T06:26:10.366Z,99.99
2018-04-25T06:27:10.338Z,99.99
2018-04-25T06:28:10.358Z,99.99
2018-04-25T06:29:10.270Z,99.99
2018-04-25T06:30:10.226Z,99.99
2018-04-25T06:31:10.181Z,99.99
2018-04-25T06:32:10.153Z,99.99
2018-04-25T06:33:10.167Z,99.99
2018-04-25T06:34:10.139Z,99.99
2018-04-25T06:35:10.087Z,99.99
2018-04-25T06:36:10.030Z,99.99
2018-04-25T06:37:09.990Z,99.99
2018-04-25T06:38:10.063Z,99.99
2018-04-25T06:39:09.917Z,99.99
2018-04-25T06:40:09.932Z,99.99
2018-04-25T06:41:09.867Z,99.99
2018-04-25T06:42:09.851Z,99.99
2018-04-25T06:43:09.802Z,99.99
2018-04-25T06:44:09.777Z,99.99
2018-04-25T06:45:09.741Z,99.73
2018-04-25T06:46:09.687Z,99.99
2018-04-25T06:47:09.656Z,97.52
2018-04-25T06:48:09.636Z,97.76
2018-04-25T06:49:09.608Z,96.42
2018-04-25T06:50:09.590Z,97.96
2018-04-25T06:51:09.528Z,98.05
2018-04-25T06:52:09.517Z,97.28
2018-04-25T06:53:09.476Z,94.45
2018-04-25T06:54:09.448Z,90.75
2018-04-25T06:55:09.427Z,90.31
2018-04-25T06:56:09.401Z,87.56
2018-04-25T06:57:09.343Z,84.97
2018-04-25T06:58:09.310Z,84.09
2018-04-25T06:59:09.279Z,79.74
2018-04-25T07:00:09.262Z,76.80
2018-04-25T07:01:09.227Z,75.05
2018-04-25T07:02:09.209Z,73.79
2018-04-25T07:03:09.169Z,73.11
2018-04-25T07:04:09.135Z,76.01
2018-04-25T07:05:09.117Z,74.08
2018-04-25T07:06:09.082Z,72.60
2018-04-25T07:07:09.048Z,74.24
2018-04-25T07:08:09.054Z,76.67
2018-04-25T07:09:09.070Z,75.34
2018-04-25T07:10:08.992Z,70.20
2018-04-25T07:11:08.979Z,66.91
2018-04-25T07:12:08.936Z,69.55
2018-04-25T07:13:08.909Z,67.46
2018-04-25T07:14:08.903Z,67.01
2018-04-25T07:15:08.856Z,70.02
2018-04-25T07:16:08.853Z,69.39
2018-04-25T07:17:08.835Z,68.62
2018-04-25T07:18:08.782Z,65.56
2018-04-25T07:19:08.768Z,66.91
2018-04-25T07:20:08.727Z,67.20
2018-04-25T07:21:08.810Z,65.47
2018-04-25T07:22:08.682Z,64.76
2018-04-25T07:23:08.663Z,69.58
2018-04-25T07:24:08.636Z,64.59
2018-04-25T07:25:08.620Z,65.59
2018-04-25T07:26:08.600Z,64.31
2018-04-25T07:27:08.593Z,67.04
2018-04-25T07:28:08.558Z,68.84
2018-04-25T07:29:08.557Z,66.43
2018-04-25T07:30:08.507Z,68.10
2018-04-25T07:31:08.509Z,66.78
2018-04-25T07:32:08.464Z,64.24
2018-04-25T07:33:08.486Z,66.49
2018-04-25T07:34:08.448Z,67.30
2018-04-25T07:35:08.399Z,66.01
2018-04-25T07:36:08.372Z,65.53
2018-04-25T07:37:08.403Z,64.89
2018-04-25T07:38:08.354Z,64.28
2018-04-25T07:39:08.340Z,63.53
2018-04-25T07:40:08.316Z,61.47
2018-04-25T07:41:08.274Z,64.31
2018-04-25T07:42:08.258Z,61.83
2018-04-25T07:43:08.237Z,65.24
2018-04-25T07:44:08.222Z,65.63
2018-04-25T07:45:08.194Z,65.34
2018-04-25T07:46:08.167Z,64.76
2018-04-25T07:47:08.141Z,66.53
2018-04-25T07:48:08.134Z,65.11
2018-04-25T07:49:08.101Z,67.49
2018-04-25T07:50:08.097Z,67.23
2018-04-25T07:51:08.079Z,64.79
2018-04-25T07:52:08.239Z,66.78
2018-04-25T07:53:08.051Z,68.93
2018-04-25T07:54:08.026Z,67.78
2018-04-25T07:55:08.013Z,66.43
2018-04-25T07:56:07.979Z,63.50
2018-04-25T07:57:07.949Z,63.92
2018-04-25T07:58:07.941Z,63.24
2018-04-25T07:59:07.931Z,63.60
2018-04-25T08:00:07.895Z,64.01
2018-04-25T08:01:07.854Z,64.01
2018-04-25T08:02:07.857Z,62.73
2018-04-25T08:03:08.612Z,66.85
2018-04-25T08:04:07.803Z,70.66
2018-04-25T08:05:07.793Z,70.76
2018-04-25T08:06:07.764Z,63.95
2018-04-25T08:07:07.741Z,66.69
2018-04-25T08:08:07.723Z,69.84
2018-04-25T08:09:07.726Z,66.88
2018-04-25T08:10:07.735Z,68.80
2018-04-25T08:11:07.681Z,69.73
2018-04-25T08:12:07.657Z,70.54
2018-04-25T08:13:07.616Z,71.81
2018-04-25T08:14:07.594Z,72.94
2018-04-25T08:15:07.578Z,73.51
2018-04-25T08:16:07.551Z,73.32
2018-04-25T08:17:07.553Z,73.42
2018-04-25T08:18:07.521Z,74.25
2018-04-25T08:19:07.513Z,73.51
2018-04-25T08:20:07.507Z,75.94
2018-04-25T08:21:07.452Z,75.49
2018-04-25T08:22:07.425Z,76.52
2018-04-25T08:23:07.411Z,75.44
2018-04-25T08:24:07.374Z,75.73
2018-04-25T08:25:07.343Z,75.31
2018-04-25T08:26:07.337Z,76.26
2018-04-25T08:27:07.336Z,75.07
2018-04-25T08:28:07.365Z,73.42
2018-04-25T08:29:07.305Z,74.50
2018-04-25T08:30:07.204Z,73.79
2018-04-25T08:31:07.202Z,75.90
2018-04-25T08:32:07.180Z,75.37
2018-04-25T08:33:07.189Z,77.42
2018-04-25T08:34:07.123Z,73.28
2018-04-25T08:35:07.116Z,72.13
2018-04-25T08:36:07.076Z,75.02
2018-04-25T08:37:07.046Z,73.51
2018-04-25T08:38:07.016Z,71.20
2018-04-25T08:39:07.008Z,73.22
2018-04-25T08:40:06.989Z,71.40
2018-04-25T08:41:06.915Z,71.69
2018-04-25T08:42:06.911Z,73.09
2018-04-25T08:43:06.939Z,75.46
2018-04-25T08:44:06.836Z,77.29
2018-04-25T08:45:06.920Z,75.88
2018-04-25T08:46:06.783Z,74.30
2018-04-25T08:47:06.812Z,73.09
2018-04-25T08:48:06.731Z,73.06
2018-04-25T08:49:06.738Z,72.96
2018-04-25T08:50:06.707Z,72.29
2018-04-25T08:51:06.674Z,73.15
2018-04-25T08:52:06.636Z,70.98
2018-04-25T08:53:06.617Z,71.36
2018-04-25T08:54:06.579Z,72.14
2018-04-25T08:55:06.571Z,69.12
2018-04-25T08:56:07.127Z,68.99
2018-04-25T08:57:06.490Z,68.76
2018-04-25T08:58:06.451Z,71.23
2018-04-25T08:59:06.427Z,73.73
2018-04-25T09:00:06.405Z,72.19
2018-04-25T09:01:06.410Z,72.09
2018-04-25T09:02:06.371Z,71.75
2018-04-25T09:03:06.350Z,72.77
2018-04-25T09:04:06.311Z,73.06
2018-04-25T09:05:06.254Z,73.63
2018-04-25T09:06:06.240Z,71.52
2018-04-25T09:07:06.196Z,72.48
2018-04-25T09:08:06.194Z,73.21
2018-04-25T09:09:06.157Z,74.85
2018-04-25T09:10:06.142Z,74.55
2018-04-25T09:11:06.111Z,75.84
2018-04-25T09:12:06.051Z,74.11
2018-04-25T09:13:06.030Z,78.42
2018-04-25T09:14:06.036Z,71.37
2018-04-25T09:15:06.040Z,72.36
2018-04-25T09:16:05.959Z,72.13
2018-04-25T09:17:05.914Z,68.23
2018-04-25T09:18:05.901Z,64.21
2018-04-25T09:19:05.909Z,63.98
2018-04-25T09:20:05.841Z,66.04
2018-04-25T09:21:05.813Z,68.51
2018-04-25T09:22:05.763Z,70.50
2018-04-25T09:23:05.758Z,72.03
2018-04-25T09:24:05.735Z,72.86
2018-04-25T09:25:05.685Z,72.96
2018-04-25T09:26:05.675Z,73.25
2018-04-25T09:27:05.635Z,73.15
2018-04-25T09:28:05.615Z,72.86
2018-04-25T09:29:05.582Z,75.07
2018-04-25T09:30:05.580Z,74.30
2018-04-25T09:31:05.660Z,74.08
2018-04-25T09:32:05.503Z,76.61
2018-04-25T09:33:05.471Z,74.40
2018-04-25T09:34:05.463Z,73.35
2018-04-25T09:35:05.426Z,73.09
2018-04-25T09:36:05.413Z,73.35
2018-04-25T09:37:05.395Z,74.02
2018-04-25T09:38:05.318Z,75.17
2018-04-25T09:39:05.306Z,74.50
2018-04-25T09:40:05.257Z,74.11
2018-04-25T09:41:05.221Z,74.21
2018-04-25T09:42:05.211Z,73.86
2018-04-25T09:43:05.200Z,73.77
2018-04-25T09:44:05.161Z,73.83
2018-04-25T09:45:05.135Z,75.07
2018-04-25T09:46:05.092Z,77.09
2018-04-25T09:47:05.064Z,72.36
2018-04-25T09:48:05.070Z,73.47
2018-04-25T09:49:05.003Z,74.34
2018-04-25T09:50:04.975Z,73.19
2018-04-25T09:51:04.935Z,73.54
2018-04-25T09:52:04.955Z,76.71
2018-04-25T09:53:04.878Z,76.77
2018-04-25T09:54:04.854Z,79.11
2018-04-25T09:55:04.831Z,77.06
2018-04-25T09:56:04.805Z,78.40
2018-04-25T09:57:04.756Z,78.78
2018-04-25T09:58:04.756Z,79.69
2018-04-25T09:59:04.711Z,77.76
2018-04-25T10:00:04.714Z,78.53
2018-04-25T10:01:04.661Z,78.40
2018-04-25T10:02:04.628Z,79.65
2018-04-25T10:03:04.622Z,80.61
2018-04-25T10:04:04.622Z,80.09
2018-04-25T10:05:04.560Z,80.09
2018-04-25T10:06:04.515Z,82.10
2018-04-25T10:07:04.484Z,81.24
2018-04-25T10:08:04.468Z,80.09
2018-04-25T10:09:04.444Z,81.48
2018-04-25T10:10:04.477Z,80.42
2018-04-25T10:11:04.366Z,79.55
2018-04-25T10:12:04.378Z,79.65
2018-04-25T10:13:04.300Z,79.80
2018-04-25T10:14:04.288Z,80.22
2018-04-25T10:15:04.280Z,79.42
2018-04-25T10:16:04.232Z,79.22
2018-04-25T10:17:04.280Z,77.25
2018-04-25T10:18:04.166Z,77.53
2018-04-25T10:19:04.137Z,77.15
2018-04-25T10:20:04.101Z,78.88
2018-04-25T10:21:04.063Z,79.03
2018-04-25T10:22:04.058Z,77.34
2018-04-25T10:23:04.012Z,77.92
2018-04-25T10:24:03.982Z,79.32
2018-04-25T10:25:04.012Z,79.36
2018-04-25T10:26:03.926Z,75.79
2018-04-25T10:27:03.892Z,74.03
2018-04-25T10:28:03.856Z,72.26
2018-04-25T10:29:03.840Z,73.28
2018-04-25T10:30:03.887Z,71.50
2018-04-25T10:31:03.782Z,66.59
2018-04-25T10:32:03.800Z,69.15
2018-04-25T10:33:03.749Z,69.12
2018-04-25T10:34:03.686Z,67.94
2018-04-25T10:35:03.664Z,69.41
2018-04-25T10:36:03.638Z,72.26
2018-04-25T10:37:03.707Z,71.44
2018-04-25T10:38:03.592Z,67.13
2018-04-25T10:39:03.533Z,70.59
2018-04-25T10:40:03.523Z,72.42
2018-04-25T10:41:03.488Z,72.45
2018-04-25T10:42:03.471Z,69.60
2018-04-25T10:43:03.466Z,69.57
2018-04-25T10:44:03.420Z,70.28
2018-04-25T10:45:03.377Z,69.87
2018-04-25T10:46:03.374Z,69.22
2018-04-25T10:47:03.336Z,70.34
2018-04-25T10:48:03.290Z,71.43
2018-04-25T10:49:03.271Z,70.53
2018-04-25T10:50:03.261Z,71.11
2018-04-25T10:51:03.217Z,71.59
2018-04-25T10:52:03.192Z,72.42
2018-04-25T10:53:03.149Z,71.84
2018-04-25T10:54:03.201Z,70.68
2018-04-25T10:55:03.144Z,71.08
2018-04-25T10:56:03.072Z,70.07
2018-04-25T10:57:03.091Z,71.14
2018-04-25T10:58:03.059Z,71.33
2018-04-25T10:59:02.992Z,70.50
2018-04-25T11:00:02.958Z,68.41
2018-04-25T11:01:02.937Z,66.36
2018-04-25T11:02:02.906Z,65.75
2018-04-25T11:03:02.887Z,65.53
2018-04-25T11:04:02.873Z,65.78
2018-04-25T11:05:02.831Z,67.32
2018-04-25T11:06:02.806Z,68.03
2018-04-25T11:07:02.819Z,66.68
2018-04-25T11:08:02.761Z,67.74
2018-04-25T11:09:02.740Z,67.80
2018-04-25T11:10:02.682Z,65.72
2018-04-25T11:11:02.688Z,64.15
2018-04-25T11:12:02.651Z,66.30
2018-04-25T11:13:02.601Z,67.55
2018-04-25T11:14:02.609Z,67.93
2018-04-25T11:15:02.599Z,67.55
2018-04-25T11:16:02.533Z,67.42
2018-04-25T11:17:02.508Z,64.69
2018-04-25T11:18:02.501Z,62.15
2018-04-25T11:19:02.438Z,63.44
2018-04-25T11:20:02.416Z,64.86
2018-04-25T11:21:02.406Z,64.53
2018-04-25T11:22:02.377Z,65.01
2018-04-25T11:23:02.352Z,65.30
2018-04-25T11:24:02.346Z,64.31
2018-04-25T11:25:02.261Z,63.98
2018-04-25T11:26:02.259Z,66.04
2018-04-25T11:27:02.235Z,66.30
2018-04-25T11:28:02.222Z,66.88
2018-04-25T11:29:02.190Z,66.10
2018-04-25T11:30:02.156Z,66.88
2018-04-25T11:31:02.107Z,66.07
2018-04-25T11:32:02.104Z,70.01
2018-04-25T11:33:02.064Z,68.67
2018-04-25T11:34:02.039Z,66.55
2018-04-25T11:35:02.040Z,68.35
2018-04-25T11:36:01.983Z,68.70
2018-04-25T11:37:01.976Z,69.95
2018-04-25T11:38:01.953Z,70.62
2018-04-25T11:39:01.929Z,70.72
2018-04-25T11:40:01.896Z,69.60
2018-04-25T11:41:01.856Z,70.23
2018-04-25T11:42:02.687Z,70.43
2018-04-25T11:43:01.790Z,70.04
2018-04-25T11:44:01.772Z,68.51
2018-04-25T11:45:01.737Z,68.79
2018-04-25T11:46:01.684Z,69.53
2018-04-25T11:47:01.679Z,70.39
2018-04-25T11:48:01.660Z,69.53
2018-04-25T11:49:01.611Z,71.93
2018-04-25T11:50:01.586Z,70.58
2018-04-25T11:51:01.580Z,72.89
2018-04-25T11:52:01.519Z,71.70
2018-04-25T11:53:01.489Z,71.16
2018-04-25T11:54:01.507Z,73.14
2018-04-25T11:55:01.433Z,72.95
2018-04-25T11:56:01.403Z,72.75
2018-04-25T11:57:01.354Z,72.75
2018-04-25T11:58:01.352Z,73.62
2018-04-25T11:59:01.353Z,74.68
2018-04-25T12:00:01.285Z,72.75
2018-04-25T12:01:01.259Z,71.98
2018-04-25T12:02:01.223Z,72.18
2018-04-25T12:03:01.215Z,73.52
2018-04-25T12:04:01.176Z,76.21
2018-04-25T12:05:02.489Z,74.58
2018-04-25T12:06:01.117Z,73.33
2018-04-25T12:07:01.072Z,74.29
2018-04-25T12:08:01.049Z,73.52
2018-04-25T12:09:01.009Z,74.01
2018-04-25T12:10:01.011Z,75.35
2018-04-25T12:11:00.960Z,73.43
2018-04-25T12:12:00.930Z,73.91
2018-04-25T12:13:00.976Z,73.04
2018-04-25T12:14:00.869Z,73.72
2018-04-25T12:15:00.848Z,72.85
2018-04-25T12:16:00.827Z,72.75
2018-04-25T12:17:00.787Z,72.53
2018-04-25T12:18:00.752Z,73.04
2018-04-25T12:19:00.738Z,72.28
2018-04-25T12:20:00.691Z,72.75
2018-04-25T12:21:00.820Z,72.08
2018-04-25T12:22:00.613Z,71.31
2018-04-25T12:23:00.580Z,72.95
2018-04-25T12:24:00.549Z,72.75
2018-04-25T12:25:00.515Z,72.66
2018-04-25T12:26:00.488Z,72.75
2018-04-25T12:27:00.461Z,72.91
2018-04-25T12:28:00.431Z,74.54
2018-04-25T12:29:00.391Z,73.00
2018-04-25T12:30:00.363Z,71.98
2018-04-25T12:31:00.348Z,72.08
2018-04-25T12:32:00.312Z,72.95
2018-04-25T12:33:00.358Z,73.00
2018-04-25T12:34:00.237Z,72.08
2018-04-25T12:35:00.241Z,72.85
2018-04-25T12:36:00.182Z,72.95
2018-04-25T12:37:00.181Z,73.04
2018-04-25T12:38:00.111Z,72.85
2018-04-25T12:39:00.089Z,73.14
2018-04-25T12:40:00.038Z,75.35
2018-04-25T12:41:00.019Z,76.07
2018-04-25T12:41:59.991Z,77.61
2018-04-25T12:42:59.942Z,76.56
2018-04-25T12:43:59.951Z,76.07
2018-04-25T12:44:59.898Z,74.19
2018-04-25T12:45:59.872Z,75.25
2018-04-25T12:46:59.848Z,73.52
2018-04-25T12:47:59.817Z,73.62
2018-04-25T12:48:59.804Z,73.91
2018-04-25T12:49:59.744Z,73.43
2018-04-25T12:50:59.723Z,74.68
2018-04-25T12:51:59.682Z,73.52